sensor_id;sensor_type;location;lat;lon;timestamp;pressure;altitude;pressure_sealevel;temperature;humidity
21728;BME280;11026;50.560;17.852;2023-04-08T00:01:08;99724.38;;;4.04;100.00
21728;BME280;11026;50.560;17.852;2023-04-08T00:03:35;99713.06;;;4.01;100.00
21728;BME280;11026;50.560;17.852;2023-04-08T00:06:03;99714.78;;;4.02;100.00
21728;BME280;11026;50.560;17.852;2023-04-08T00:08:30;99713.91;;;4.04;100.00
21728;BME280;11026;50.560;17.852;2023-04-08T00:10:59;99714.75;;;4.03;100.00
21728;BME280;11026;50.560;17.852;2023-04-08T00:13:26;99718.28;;;4.02;100.00
21728;BME280;11026;50.560;17.852;2023-04-08T00:15:53;99724.41;;;4.00;100.00
21728;BME280;11026;50.560;17.852;2023-04-08T00:18:22;99731.44;;;3.98;100.00
21728;BME280;11026;50.560;17.852;2023-04-08T00:20:49;99729.66;;;3.98;100.00
21728;BME280;11026;50.560;17.852;2023-04-08T00:23:17;99731.34;;;4.02;100.00
21728;BME280;11026;50.560;17.852;2023-04-08T00:25:45;99723.47;;;4.05;100.00
21728;BME280;11026;50.560;17.852;2023-04-08T00:28:13;99733.09;;;4.03;100.00
21728;BME280;11026;50.560;17.852;2023-04-08T00:30:46;99739.19;;;4.05;100.00
21728;BME280;11026;50.560;17.852;2023-04-08T00:33:14;99727.84;;;4.03;100.00
21728;BME280;11026;50.560;17.852;2023-04-08T00:35:42;99741.03;;;3.97;100.00
21728;BME280;11026;50.560;17.852;2023-04-08T00:38:10;99735.69;;;4.05;100.00
21728;BME280;11026;50.560;17.852;2023-04-08T00:40:37;99733.03;;;4.06;100.00
21728;BME280;11026;50.560;17.852;2023-04-08T00:43:05;99738.25;;;4.09;100.00
21728;BME280;11026;50.560;17.852;2023-04-08T00:45:32;99749.63;;;4.07;100.00
21728;BME280;11026;50.560;17.852;2023-04-08T00:48:01;99744.44;;;4.02;100.00
21728;BME280;11026;50.560;17.852;2023-04-08T00:50:29;99752.25;;;4.05;100.00
21728;BME280;11026;50.560;17.852;2023-04-08T00:52:57;99750.31;;;4.18;100.00
21728;BME280;11026;50.560;17.852;2023-04-08T00:55:25;99752.09;;;4.17;100.00
21728;BME280;11026;50.560;17.852;2023-04-08T00:57:52;99753.72;;;4.25;100.00
21728;BME280;11026;50.560;17.852;2023-04-08T01:00:20;99757.19;;;4.27;100.00
21728;BME280;11026;50.560;17.852;2023-04-08T01:06:06;99766.56;;;4.41;100.00
21728;BME280;11026;50.560;17.852;2023-04-08T01:08:39;99767.38;;;4.45;100.00
21728;BME280;11026;50.560;17.852;2023-04-08T01:11:10;99761.28;;;4.43;100.00
21728;BME280;11026;50.560;17.852;2023-04-08T01:13:41;99764.06;;;4.34;100.00
21728;BME280;11026;50.560;17.852;2023-04-08T01:16:12;99765.91;;;4.29;100.00
21728;BME280;11026;50.560;17.852;2023-04-08T01:18:43;99775.38;;;4.37;100.00
21728;BME280;11026;50.560;17.852;2023-04-08T01:21:11;99774.56;;;4.32;100.00
21728;BME280;11026;50.560;17.852;2023-04-08T01:24:09;99772.78;;;4.36;100.00
21728;BME280;11026;50.560;17.852;2023-04-08T01:26:43;99769.34;;;4.31;100.00
21728;BME280;11026;50.560;17.852;2023-04-08T01:29:19;99775.47;;;4.30;100.00
21728;BME280;11026;50.560;17.852;2023-04-08T01:31:49;99774.56;;;4.31;100.00
21728;BME280;11026;50.560;17.852;2023-04-08T01:34:18;99777.16;;;4.34;100.00
21728;BME280;11026;50.560;17.852;2023-04-08T01:36:47;99781.53;;;4.33;100.00
21728;BME280;11026;50.560;17.852;2023-04-08T01:39:16;99774.56;;;4.31;100.00
21728;BME280;11026;50.560;17.852;2023-04-08T01:41:45;99783.41;;;4.25;100.00
21728;BME280;11026;50.560;17.852;2023-04-08T01:44:14;99783.53;;;4.14;100.00
21728;BME280;11026;50.560;17.852;2023-04-08T01:46:43;99788.78;;;4.14;100.00
21728;BME280;11026;50.560;17.852;2023-04-08T01:49:10;99786.13;;;4.17;100.00
21728;BME280;11026;50.560;17.852;2023-04-08T01:51:38;99785.38;;;4.09;100.00
21728;BME280;11026;50.560;17.852;2023-04-08T01:54:07;99784.47;;;4.12;100.00
21728;BME280;11026;50.560;17.852;2023-04-08T01:56:36;99791.44;;;4.11;100.00
21728;BME280;11026;50.560;17.852;2023-04-08T01:59:09;99786.22;;;4.10;100.00
21728;BME280;11026;50.560;17.852;2023-04-08T02:01:42;99790.56;;;4.12;100.00
21728;BME280;11026;50.560;17.852;2023-04-08T02:04:11;99798.47;;;4.08;100.00
21728;BME280;11026;50.560;17.852;2023-04-08T02:06:40;99791.63;;;3.98;100.00
21728;BME280;11026;50.560;17.852;2023-04-08T02:09:07;99792.44;;;4.04;100.00
21728;BME280;11026;50.560;17.852;2023-04-08T02:11:34;99793.25;;;4.06;100.00
21728;BME280;11026;50.560;17.852;2023-04-08T02:14:03;99798.63;;;3.97;100.00
21728;BME280;11026;50.560;17.852;2023-04-08T02:16:40;99805.44;;;4.09;100.00
21728;BME280;11026;50.560;17.852;2023-04-08T02:20:16;99810.81;;;3.98;100.00
21728;BME280;11026;50.560;17.852;2023-04-08T02:25:20;99816.19;;;3.87;100.00
21728;BME280;11026;50.560;17.852;2023-04-08T02:27:54;99815.25;;;3.93;100.00
21728;BME280;11026;50.560;17.852;2023-04-08T02:30:24;99822.25;;;3.91;100.00
21728;BME280;11026;50.560;17.852;2023-04-08T02:32:55;99827.53;;;3.86;100.00
21728;BME280;11026;50.560;17.852;2023-04-08T02:35:23;99824.09;;;3.83;100.00
21728;BME280;11026;50.560;17.852;2023-04-08T02:37:51;99823.16;;;3.88;100.00
21728;BME280;11026;50.560;17.852;2023-04-08T02:40:27;99828.50;;;3.79;100.00
21728;BME280;11026;50.560;17.852;2023-04-08T02:42:55;99828.53;;;3.78;100.00
21728;BME280;11026;50.560;17.852;2023-04-08T02:45:40;99831.03;;;3.84;100.00
21728;BME280;11026;50.560;17.852;2023-04-08T02:48:09;99831.03;;;3.87;100.00
21728;BME280;11026;50.560;17.852;2023-04-08T02:50:37;99831.16;;;3.75;100.00
21728;BME280;11026;50.560;17.852;2023-04-08T02:53:07;99832.88;;;3.76;100.00
21728;BME280;11026;50.560;17.852;2023-04-08T02:55:35;99834.66;;;3.74;100.00
21728;BME280;11026;50.560;17.852;2023-04-08T02:58:04;99834.72;;;3.67;100.00
21728;BME280;11026;50.560;17.852;2023-04-08T03:00:31;99843.41;;;3.73;100.00
21728;BME280;11026;50.560;17.852;2023-04-08T03:02:59;99844.34;;;3.68;100.00
21728;BME280;11026;50.560;17.852;2023-04-08T03:05:27;99853.03;;;3.67;100.00
21728;BME280;11026;50.560;17.852;2023-04-08T03:07:54;99847.94;;;3.55;100.00
21728;BME280;11026;50.560;17.852;2023-04-08T03:10:23;99845.38;;;3.51;100.00
21728;BME280;11026;50.560;17.852;2023-04-08T03:12:51;99849.78;;;3.47;100.00
21728;BME280;11026;50.560;17.852;2023-04-08T03:15:18;99848.03;;;3.46;100.00
21728;BME280;11026;50.560;17.852;2023-04-08T03:17:45;99851.56;;;3.40;100.00
21728;BME280;11026;50.560;17.852;2023-04-08T03:20:14;99849.94;;;3.33;100.00
21728;BME280;11026;50.560;17.852;2023-04-08T03:22:41;99852.69;;;3.18;100.00
21728;BME280;11026;50.560;17.852;2023-04-08T03:25:09;99850.94;;;3.18;100.00
21728;BME280;11026;50.560;17.852;2023-04-08T03:27:37;99853.53;;;3.18;100.00
21728;BME280;11026;50.560;17.852;2023-04-08T03:30:11;99861.38;;;3.22;100.00
21728;BME280;11026;50.560;17.852;2023-04-08T03:32:40;99858.69;;;3.26;100.00
21728;BME280;11026;50.560;17.852;2023-04-08T03:35:14;99869.25;;;3.17;100.00
21728;BME280;11026;50.560;17.852;2023-04-08T03:37:42;99861.38;;;3.22;100.00
21728;BME280;11026;50.560;17.852;2023-04-08T03:40:09;99863.13;;;3.16;100.00
21728;BME280;11026;50.560;17.852;2023-04-08T03:42:37;99870.91;;;3.26;100.00
21728;BME280;11026;50.560;17.852;2023-04-08T03:45:05;99869.13;;;3.29;100.00
21728;BME280;11026;50.560;17.852;2023-04-08T03:47:33;99874.44;;;3.18;100.00
21728;BME280;11026;50.560;17.852;2023-04-08T03:50:02;99877.06;;;3.22;100.00
21728;BME280;11026;50.560;17.852;2023-04-08T03:52:29;99880.47;;;3.30;100.00
21728;BME280;11026;50.560;17.852;2023-04-08T03:54:57;99884.03;;;3.19;100.00
21728;BME280;11026;50.560;17.852;2023-04-08T03:57:24;99887.50;;;3.22;100.00
21728;BME280;11026;50.560;17.852;2023-04-08T03:59:54;99889.97;;;3.35;100.00
21728;BME280;11026;50.560;17.852;2023-04-08T04:02:24;99896.03;;;3.45;100.00
21728;BME280;11026;50.560;17.852;2023-04-08T04:04:51;99890.78;;;3.43;100.00
21728;BME280;11026;50.560;17.852;2023-04-08T04:07:19;99896.88;;;3.44;100.00
21728;BME280;11026;50.560;17.852;2023-04-08T04:09:48;99900.38;;;3.43;100.00
21728;BME280;11026;50.560;17.852;2023-04-08T04:12:19;99899.50;;;3.44;100.00
21728;BME280;11026;50.560;17.852;2023-04-08T04:14:47;99907.41;;;3.36;100.00
21728;BME280;11026;50.560;17.852;2023-04-08T04:17:14;99908.31;;;3.34;100.00
21728;BME280;11026;50.560;17.852;2023-04-08T04:19:42;99916.19;;;3.31;100.00
21728;BME280;11026;50.560;17.852;2023-04-08T04:22:09;99923.09;;;3.38;100.00
21728;BME280;11026;50.560;17.852;2023-04-08T04:24:37;99927.53;;;3.30;100.00
21728;BME280;11026;50.560;17.852;2023-04-08T04:27:05;99924.94;;;3.24;100.00
21728;BME280;11026;50.560;17.852;2023-04-08T04:29:32;99928.44;;;3.26;100.00
21728;BME280;11026;50.560;17.852;2023-04-08T04:32:00;99937.13;;;3.26;100.00
21728;BME280;11026;50.560;17.852;2023-04-08T04:34:27;99936.28;;;3.23;100.00
21728;BME280;11026;50.560;17.852;2023-04-08T04:36:55;99933.72;;;3.18;100.00
21728;BME280;11026;50.560;17.852;2023-04-08T04:39:22;99946.75;;;3.19;100.00
21728;BME280;11026;50.560;17.852;2023-04-08T04:41:49;99945.00;;;3.23;100.00
21728;BME280;11026;50.560;17.852;2023-04-08T04:44:18;99950.28;;;3.12;100.00
21728;BME280;11026;50.560;17.852;2023-04-08T04:46:45;99954.63;;;3.16;100.00
21728;BME280;11026;50.560;17.852;2023-04-08T04:49:13;99951.06;;;3.28;100.00
21728;BME280;11026;50.560;17.852;2023-04-08T04:51:40;99951.94;;;3.24;100.00
21728;BME280;11026;50.560;17.852;2023-04-08T04:54:08;99958.91;;;3.27;100.00
21728;BME280;11026;50.560;17.852;2023-04-08T04:56:35;99952.78;;;3.34;100.00
21728;BME280;11026;50.560;17.852;2023-04-08T04:59:03;99962.31;;;3.39;100.00
21728;BME280;11026;50.560;17.852;2023-04-08T05:01:33;99960.59;;;3.37;100.00
21728;BME280;11026;50.560;17.852;2023-04-08T05:04:01;99967.63;;;3.30;100.00
21728;BME280;11026;50.560;17.852;2023-04-08T05:06:30;99959.75;;;3.32;100.00
21728;BME280;11026;50.560;17.852;2023-04-08T05:08:59;99967.47;;;3.47;100.00
21728;BME280;11026;50.560;17.852;2023-04-08T05:11:28;99968.34;;;3.48;100.00
21728;BME280;11026;50.560;17.852;2023-04-08T05:13:55;99965.75;;;3.46;100.00
21728;BME280;11026;50.560;17.852;2023-04-08T05:16:23;99980.47;;;3.58;100.00
21728;BME280;11026;50.560;17.852;2023-04-08T05:18:51;99986.59;;;3.52;100.00
21728;BME280;11026;50.560;17.852;2023-04-08T05:21:19;99988.31;;;3.56;100.00
21728;BME280;11026;50.560;17.852;2023-04-08T05:23:48;99988.25;;;3.65;100.00
21728;BME280;11026;50.560;17.852;2023-04-08T05:26:19;99990.09;;;3.54;100.00
21728;BME280;11026;50.560;17.852;2023-04-08T05:28:48;99992.69;;;3.56;100.00
21728;BME280;11026;50.560;17.852;2023-04-08T05:31:29;99997.88;;;3.62;100.00
21728;BME280;11026;50.560;17.852;2023-04-08T05:33:57;100007.59;;;3.43;100.00
21728;BME280;11026;50.560;17.852;2023-04-08T05:36:24;100006.66;;;3.55;100.00
21728;BME280;11026;50.560;17.852;2023-04-08T05:38:53;100014.56;;;3.47;100.00
21728;BME280;11026;50.560;17.852;2023-04-08T05:41:22;100015.44;;;3.46;100.00
21728;BME280;11026;50.560;17.852;2023-04-08T05:43:50;100016.31;;;3.45;100.00
21728;BME280;11026;50.560;17.852;2023-04-08T05:46:17;100013.66;;;3.51;100.00
21728;BME280;11026;50.560;17.852;2023-04-08T05:48:45;100023.22;;;3.55;100.00
21728;BME280;11026;50.560;17.852;2023-04-08T05:51:16;100027.53;;;3.62;100.00
21728;BME280;11026;50.560;17.852;2023-04-08T05:53:46;100031.84;;;3.66;100.00
21728;BME280;11026;50.560;17.852;2023-04-08T05:56:20;100025.78;;;3.64;100.00
21728;BME280;11026;50.560;17.852;2023-04-08T05:58:48;100047.63;;;3.54;100.00
21728;BME280;11026;50.560;17.852;2023-04-08T06:01:16;100032.81;;;3.52;100.00
21728;BME280;11026;50.560;17.852;2023-04-08T06:03:44;100039.78;;;3.54;100.00
21728;BME280;11026;50.560;17.852;2023-04-08T06:06:11;100052.09;;;3.44;100.00
21728;BME280;11026;50.560;17.852;2023-04-08T06:08:39;100043.38;;;3.41;100.00
21728;BME280;11026;50.560;17.852;2023-04-08T06:11:07;100048.59;;;3.42;100.00
21728;BME280;11026;50.560;17.852;2023-04-08T06:13:36;100039.91;;;3.37;100.00
21728;BME280;11026;50.560;17.852;2023-04-08T06:16:13;100046.91;;;3.34;100.00
21728;BME280;11026;50.560;17.852;2023-04-08T06:18:40;100053.88;;;3.35;100.00
21728;BME280;11026;50.560;17.852;2023-04-08T06:21:10;100058.19;;;3.40;100.00
21728;BME280;11026;50.560;17.852;2023-04-08T06:23:37;100057.28;;;3.46;100.00
21728;BME280;11026;50.560;17.852;2023-04-08T06:26:05;100066.84;;;3.52;100.00
21728;BME280;11026;50.560;17.852;2023-04-08T06:28:32;100066.81;;;3.55;100.00
21728;BME280;11026;50.560;17.852;2023-04-08T06:30:59;100068.56;;;3.54;100.00
21728;BME280;11026;50.560;17.852;2023-04-08T06:33:27;100070.25;;;3.64;100.00
21728;BME280;11026;50.560;17.852;2023-04-08T06:36:02;100074.59;;;3.64;100.00
21728;BME280;11026;50.560;17.852;2023-04-08T06:38:30;100072.00;;;3.62;100.00
21728;BME280;11026;50.560;17.852;2023-04-08T06:41:04;100075.47;;;3.66;100.00
21728;BME280;11026;50.560;17.852;2023-04-08T06:43:38;100087.63;;;3.70;100.00
21728;BME280;11026;50.560;17.852;2023-04-08T06:46:08;100085.00;;;3.72;100.00
21728;BME280;11026;50.560;17.852;2023-04-08T06:48:35;100087.63;;;3.76;100.00
21728;BME280;11026;50.560;17.852;2023-04-08T06:51:05;100086.72;;;3.76;100.00
21728;BME280;11026;50.560;17.852;2023-04-08T06:53:34;100084.97;;;3.78;100.00
21728;BME280;11026;50.560;17.852;2023-04-08T06:56:01;100091.84;;;3.88;100.00
21728;BME280;11026;50.560;17.852;2023-04-08T06:58:28;100097.06;;;3.91;100.00
21728;BME280;11026;50.560;17.852;2023-04-08T07:00:59;100098.78;;;3.97;100.00
21728;BME280;11026;50.560;17.852;2023-04-08T07:03:27;100097.91;;;3.98;100.00
21728;BME280;11026;50.560;17.852;2023-04-08T07:05:55;100104.81;;;4.03;100.00
21728;BME280;11026;50.560;17.852;2023-04-08T07:08:22;100099.53;;;4.12;100.00
21728;BME280;11026;50.560;17.852;2023-04-08T07:10:51;100106.34;;;4.29;100.00
21728;BME280;11026;50.560;17.852;2023-04-08T07:13:20;100101.88;;;4.38;100.00
21728;BME280;11026;50.560;17.852;2023-04-08T07:15:47;100115.75;;;4.50;100.00
21728;BME280;11026;50.560;17.852;2023-04-08T07:18:16;100107.00;;;4.52;100.00
21728;BME280;11026;50.560;17.852;2023-04-08T07:20:51;100114.75;;;4.61;100.00
21728;BME280;11026;50.560;17.852;2023-04-08T07:23:20;100114.75;;;4.61;100.00
21728;BME280;11026;50.560;17.852;2023-04-08T07:25:47;100111.28;;;4.61;100.00
21728;BME280;11026;50.560;17.852;2023-04-08T07:28:16;100115.63;;;4.63;99.56
21728;BME280;11026;50.560;17.852;2023-04-08T07:30:43;100113.88;;;4.62;98.55
21728;BME280;11026;50.560;17.852;2023-04-08T07:33:11;100120.78;;;4.69;98.49
21728;BME280;11026;50.560;17.852;2023-04-08T07:35:39;100127.72;;;4.77;98.19
21728;BME280;11026;50.560;17.852;2023-04-08T07:38:08;100126.88;;;4.73;96.92
21728;BME280;11026;50.560;17.852;2023-04-08T07:40:38;100133.91;;;4.69;96.97
21728;BME280;11026;50.560;17.852;2023-04-08T07:43:06;100129.38;;;4.84;97.76
21728;BME280;11026;50.560;17.852;2023-04-08T07:45:35;100130.19;;;4.89;96.58
21728;BME280;11026;50.560;17.852;2023-04-08T07:48:02;100126.69;;;4.90;95.49
21728;BME280;11026;50.560;17.852;2023-04-08T07:50:30;100124.94;;;4.89;95.63
21728;BME280;11026;50.560;17.852;2023-04-08T07:52:57;100127.38;;;5.06;96.04
21728;BME280;11026;50.560;17.852;2023-04-08T07:55:25;100135.13;;;5.15;95.81
21728;BME280;11026;50.560;17.852;2023-04-08T07:57:58;100130.00;;;5.07;94.88
21728;BME280;11026;50.560;17.852;2023-04-08T08:00:26;100134.22;;;5.17;94.70
21728;BME280;11026;50.560;17.852;2023-04-08T08:02:53;100127.13;;;5.26;95.68
21728;BME280;11026;50.560;17.852;2023-04-08T08:05:21;100136.47;;;5.45;95.92
21728;BME280;11026;50.560;17.852;2023-04-08T08:07:48;100133.97;;;5.39;94.60
21728;BME280;11026;50.560;17.852;2023-04-08T08:10:17;100140.91;;;5.43;92.60
21728;BME280;11026;50.560;17.852;2023-04-08T08:12:46;100144.41;;;5.40;92.04
21728;BME280;11026;50.560;17.852;2023-04-08T08:15:13;100140.84;;;5.48;92.24
21728;BME280;11026;50.560;17.852;2023-04-08T08:17:41;100144.16;;;5.60;92.27
21728;BME280;11026;50.560;17.852;2023-04-08T08:20:08;100146.44;;;5.82;91.17
21728;BME280;11026;50.560;17.852;2023-04-08T08:22:38;100146.41;;;5.85;89.40
21728;BME280;11026;50.560;17.852;2023-04-08T08:25:23;100142.88;;;5.87;87.83
21728;BME280;11026;50.560;17.852;2023-04-08T08:27:51;100147.19;;;5.93;87.91
21728;BME280;11026;50.560;17.852;2023-04-08T08:30:20;100156.75;;;5.97;88.12
21728;BME280;11026;50.560;17.852;2023-04-08T08:32:50;100146.06;;;6.09;87.81
21728;BME280;11026;50.560;17.852;2023-04-08T08:35:19;100145.28;;;6.06;86.09
21728;BME280;11026;50.560;17.852;2023-04-08T08:37:46;100155.00;;;5.99;86.50
21728;BME280;11026;50.560;17.852;2023-04-08T08:40:15;100154.63;;;6.21;86.91
21728;BME280;11026;50.560;17.852;2023-04-08T08:42:49;100159.56;;;6.42;88.42
21728;BME280;11026;50.560;17.852;2023-04-08T08:45:21;100166.38;;;6.54;87.23
21728;BME280;11026;50.560;17.852;2023-04-08T08:47:50;100168.88;;;6.61;84.54
21728;BME280;11026;50.560;17.852;2023-04-08T08:50:18;100169.84;;;6.54;83.52
21728;BME280;11026;50.560;17.852;2023-04-08T08:52:51;100173.22;;;6.62;84.57
21728;BME280;11026;50.560;17.852;2023-04-08T08:55:20;100172.94;;;6.78;83.93
21728;BME280;11026;50.560;17.852;2023-04-08T08:58:13;100176.31;;;6.86;82.32
21728;BME280;11026;50.560;17.852;2023-04-08T09:00:46;100167.59;;;6.81;81.07
21728;BME280;11026;50.560;17.852;2023-04-08T09:03:22;100173.81;;;6.78;82.05
21728;BME280;11026;50.560;17.852;2023-04-08T09:05:53;100181.56;;;6.86;82.55
21728;BME280;11026;50.560;17.852;2023-04-08T09:08:27;100175.88;;;7.07;83.74
21728;BME280;11026;50.560;17.852;2023-04-08T09:11:09;100184.06;;;7.37;84.22
21728;BME280;11026;50.560;17.852;2023-04-08T09:13:49;100181.84;;;7.60;80.24
21728;BME280;11026;50.560;17.852;2023-04-08T09:16:19;100187.59;;;7.78;78.71
21728;BME280;11026;50.560;17.852;2023-04-08T09:18:49;100191.56;;;7.96;78.23
21728;BME280;11026;50.560;17.852;2023-04-08T09:21:17;100200.41;;;7.93;76.26
21728;BME280;11026;50.560;17.852;2023-04-08T09:23:49;100203.75;;;8.00;75.18
21728;BME280;11026;50.560;17.852;2023-04-08T09:26:23;100201.94;;;8.03;75.73
21728;BME280;11026;50.560;17.852;2023-04-08T09:29:07;100206.22;;;8.07;73.85
21728;BME280;11026;50.560;17.852;2023-04-08T09:31:58;100210.38;;;7.80;70.60
21728;BME280;11026;50.560;17.852;2023-04-08T09:34:27;100199.63;;;7.89;70.91
21728;BME280;11026;50.560;17.852;2023-04-08T09:36:55;100210.50;;;8.11;72.32
21728;BME280;11026;50.560;17.852;2023-04-08T09:39:23;100203.16;;;8.26;71.52
21728;BME280;11026;50.560;17.852;2023-04-08T09:41:51;100213.66;;;8.29;70.22
21728;BME280;11026;50.560;17.852;2023-04-08T09:44:20;100208.66;;;8.17;68.41
21728;BME280;11026;50.560;17.852;2023-04-08T09:52:10;100217.44;;;8.54;70.93
21728;BME280;11026;50.560;17.852;2023-04-08T09:57:45;100210.72;;;9.09;69.77
21728;BME280;11026;50.560;17.852;2023-04-08T10:00:15;100205.75;;;9.30;70.13
21728;BME280;11026;50.560;17.852;2023-04-08T10:05:40;100213.53;;;9.36;68.29
21728;BME280;11026;50.560;17.852;2023-04-08T10:08:10;100203.53;;;9.47;66.13
21728;BME280;11026;50.560;17.852;2023-04-08T10:10:39;100208.84;;;9.15;64.53
21728;BME280;11026;50.560;17.852;2023-04-08T10:13:08;100209.66;;;9.17;64.86
21728;BME280;11026;50.560;17.852;2023-04-08T10:15:36;100208.81;;;9.47;66.17
21728;BME280;11026;50.560;17.852;2023-04-08T10:23:15;100199.78;;;10.42;63.49
21728;BME280;11026;50.560;17.852;2023-04-08T10:25:47;100197.78;;;10.75;62.72
21728;BME280;11026;50.560;17.852;2023-04-08T10:33:33;100194.41;;;12.58;59.45
21728;BME280;11026;50.560;17.852;2023-04-08T10:36:12;100194.09;;;12.86;58.07
21728;BME280;11026;50.560;17.852;2023-04-08T10:38:42;100194.44;;;12.98;55.35
21728;BME280;11026;50.560;17.852;2023-04-08T10:41:10;100186.22;;;13.25;54.21
21728;BME280;11026;50.560;17.852;2023-04-08T10:43:40;100193.75;;;13.55;56.13
21728;BME280;11026;50.560;17.852;2023-04-08T10:46:09;100182.59;;;14.22;56.18
21728;BME280;11026;50.560;17.852;2023-04-08T10:48:38;100186.84;;;14.62;53.14
21728;BME280;11026;50.560;17.852;2023-04-08T10:51:05;100191.53;;;14.92;52.58
21728;BME280;11026;50.560;17.852;2023-04-08T10:53:34;100194.13;;;14.59;50.33
21728;BME280;11026;50.560;17.852;2023-04-08T10:56:14;100190.84;;;14.35;51.10
21728;BME280;11026;50.560;17.852;2023-04-08T10:58:48;100196.16;;;13.98;52.35
21728;BME280;11026;50.560;17.852;2023-04-08T11:01:16;100192.34;;;13.66;53.00
21728;BME280;11026;50.560;17.852;2023-04-08T11:03:43;100198.22;;;13.13;54.07
21728;BME280;11026;50.560;17.852;2023-04-08T11:06:11;100189.81;;;13.03;53.39
21728;BME280;11026;50.560;17.852;2023-04-08T11:08:39;100187.81;;;12.88;54.05
21728;BME280;11026;50.560;17.852;2023-04-08T11:11:09;100200.09;;;12.91;54.03
21728;BME280;11026;50.560;17.852;2023-04-08T11:13:42;100187.81;;;13.09;53.26
21728;BME280;11026;50.560;17.852;2023-04-08T11:16:20;100192.47;;;13.24;52.82
21728;BME280;11026;50.560;17.852;2023-04-08T11:18:50;100189.53;;;13.30;53.01
21728;BME280;11026;50.560;17.852;2023-04-08T11:21:19;100186.47;;;13.19;52.08
21728;BME280;11026;50.560;17.852;2023-04-08T11:23:53;100189.69;;;13.07;52.03
21728;BME280;11026;50.560;17.852;2023-04-08T11:26:22;100183.09;;;13.15;51.72
21728;BME280;11026;50.560;17.852;2023-04-08T11:28:53;100173.50;;;13.52;52.43
21728;BME280;11026;50.560;17.852;2023-04-08T11:31:22;100176.44;;;14.39;52.16
21728;BME280;11026;50.560;17.852;2023-04-08T11:33:52;100175.56;;;14.92;51.01
21728;BME280;11026;50.560;17.852;2023-04-08T11:36:20;100167.88;;;15.03;49.82
21728;BME280;11026;50.560;17.852;2023-04-08T11:38:48;100173.59;;;15.13;50.20
21728;BME280;11026;50.560;17.852;2023-04-08T11:41:23;100176.88;;;15.18;49.54
21728;BME280;11026;50.560;17.852;2023-04-08T11:43:55;100167.22;;;15.66;48.42
21728;BME280;11026;50.560;17.852;2023-04-08T11:46:23;100169.91;;;15.97;45.54
21728;BME280;11026;50.560;17.852;2023-04-08T11:49:05;100171.44;;;16.17;46.52
21728;BME280;11026;50.560;17.852;2023-04-08T11:51:54;100165.53;;;16.88;46.44
21728;BME280;11026;50.560;17.852;2023-04-08T11:54:29;100177.72;;;16.32;44.42
21728;BME280;11026;50.560;17.852;2023-04-08T11:56:58;100165.94;;;16.05;45.34
21728;BME280;11026;50.560;17.852;2023-04-08T11:59:25;100170.19;;;16.85;46.05
21728;BME280;11026;50.560;17.852;2023-04-08T12:01:55;100178.19;;;17.15;44.65
21728;BME280;11026;50.560;17.852;2023-04-08T12:04:23;100183.34;;;16.58;45.06
21728;BME280;11026;50.560;17.852;2023-04-08T12:06:51;100178.06;;;16.26;45.66
21728;BME280;11026;50.560;17.852;2023-04-08T12:09:19;100174.44;;;15.95;45.70
21728;BME280;11026;50.560;17.852;2023-04-08T12:11:51;100175.50;;;15.77;46.31
21728;BME280;11026;50.560;17.852;2023-04-08T12:14:19;100173.19;;;15.54;47.18
21728;BME280;11026;50.560;17.852;2023-04-08T12:16:48;100165.69;;;14.59;48.17
21728;BME280;11026;50.560;17.852;2023-04-08T12:19:15;100170.00;;;14.25;50.09
21728;BME280;11026;50.560;17.852;2023-04-08T12:21:42;100173.78;;;13.65;51.10
21728;BME280;11026;50.560;17.852;2023-04-08T12:24:10;100176.41;;;13.27;52.35
21728;BME280;11026;50.560;17.852;2023-04-08T12:26:37;100178.13;;;12.87;53.46
21728;BME280;11026;50.560;17.852;2023-04-08T12:29:05;100172.66;;;12.70;53.10
21728;BME280;11026;50.560;17.852;2023-04-08T12:31:37;100179.13;;;12.42;54.31
21728;BME280;11026;50.560;17.852;2023-04-08T12:34:04;100178.25;;;12.64;54.73
21728;BME280;11026;50.560;17.852;2023-04-08T12:36:32;100178.38;;;12.61;55.32
21728;BME280;11026;50.560;17.852;2023-04-08T12:39:01;100175.50;;;12.65;54.99
21728;BME280;11026;50.560;17.852;2023-04-08T12:41:28;100172.41;;;12.76;54.98
21728;BME280;11026;50.560;17.852;2023-04-08T12:43:57;100179.56;;;12.94;54.76
21728;BME280;11026;50.560;17.852;2023-04-08T12:46:24;100176.53;;;13.24;54.88
21728;BME280;11026;50.560;17.852;2023-04-08T12:48:58;100173.19;;;13.39;53.53
21728;BME280;11026;50.560;17.852;2023-04-08T12:51:30;100180.28;;;13.18;53.38
21728;BME280;11026;50.560;17.852;2023-04-08T12:53:58;100171.63;;;13.15;53.40
21728;BME280;11026;50.560;17.852;2023-04-08T12:56:26;100171.88;;;13.09;52.89
21728;BME280;11026;50.560;17.852;2023-04-08T12:58:54;100170.00;;;12.90;54.20
21728;BME280;11026;50.560;17.852;2023-04-08T13:01:22;100172.31;;;12.57;54.94
21728;BME280;11026;50.560;17.852;2023-04-08T13:03:50;100171.59;;;12.53;55.13
21728;BME280;11026;50.560;17.852;2023-04-08T13:06:17;100170.31;;;12.42;55.73
21728;BME280;11026;50.560;17.852;2023-04-08T13:08:45;100173.00;;;12.20;55.42
21728;BME280;11026;50.560;17.852;2023-04-08T13:11:14;100163.47;;;11.92;56.91
21728;BME280;11026;50.560;17.852;2023-04-08T13:13:43;100172.75;;;11.80;56.18
21728;BME280;11026;50.560;17.852;2023-04-08T13:16:12;100174.38;;;11.85;57.44
21728;BME280;11026;50.560;17.852;2023-04-08T13:18:40;100170.53;;;11.92;57.19
21728;BME280;11026;50.560;17.852;2023-04-08T13:21:08;100168.53;;;11.75;57.03
21728;BME280;11026;50.560;17.852;2023-04-08T13:23:36;100162.91;;;11.61;56.91
21728;BME280;11026;50.560;17.852;2023-04-08T13:26:09;100172.47;;;11.41;57.65